createdAt,value
2019-05-06T00:00:33.847Z,0
2019-05-06T00:01:33.758Z,0
2019-05-06T00:02:33.547Z,0
2019-05-06T00:03:34.197Z,0
2019-05-06T00:04:33.676Z,0
2019-05-06T00:05:34.093Z,0
2019-05-06T00:06:30.925Z,0
2019-05-06T00:07:33.868Z,0
2019-05-06T00:08:30.864Z,0
2019-05-06T00:09:31.288Z,0
2019-05-06T00:10:33.862Z,0
2019-05-06T00:11:31.080Z,0
2019-05-06T00:12:31.150Z,0
2019-05-06T00:13:31.394Z,0
2019-05-06T00:14:30.754Z,0
2019-05-06T00:15:34.236Z,0
2019-05-06T00:16:31.024Z,0
2019-05-06T00:17:31.161Z,0
2019-05-06T00:18:33.935Z,0
2019-05-06T00:19:33.995Z,0
2019-05-06T00:20:31.612Z,0
2019-05-06T00:21:31.639Z,0
2019-05-06T00:22:30.955Z,0
2019-05-06T00:23:32.081Z,0
2019-05-06T00:24:31.126Z,0
2019-05-06T00:25:31.426Z,0
2019-05-06T00:26:33.480Z,0
2019-05-06T00:27:34.044Z,0
2019-05-06T00:28:33.814Z,0
2019-05-06T00:29:31.432Z,0
2019-05-06T00:30:31.670Z,0
2019-05-06T00:31:31.207Z,0
2019-05-06T00:32:31.540Z,0
2019-05-06T00:33:31.240Z,0
2019-05-06T00:34:31.695Z,0
2019-05-06T00:35:30.622Z,0
2019-05-06T00:36:30.974Z,0
2019-05-06T00:37:31.301Z,0
2019-05-06T00:38:33.469Z,0
2019-05-06T00:39:33.459Z,0
2019-05-06T00:40:31.555Z,0
2019-05-06T00:41:31.568Z,0
2019-05-06T00:42:34.373Z,0
2019-05-06T00:43:30.779Z,0
2019-05-06T00:44:31.076Z,0
2019-05-06T00:45:33.979Z,0
2019-05-06T00:46:31.507Z,0
2019-05-06T00:47:33.761Z,0
2019-05-06T00:48:33.921Z,0
2019-05-06T00:49:31.024Z,0
2019-05-06T00:50:31.168Z,0
2019-05-06T00:51:33.660Z,0
2019-05-06T00:52:33.940Z,0
2019-05-06T00:53:31.078Z,0
2019-05-06T00:54:29.655Z,0
2019-05-06T00:55:33.608Z,0
2019-05-06T00:56:33.782Z,0
2019-05-06T00:57:30.569Z,0
2019-05-06T00:58:30.800Z,0
2019-05-06T00:59:30.815Z,0
2019-05-06T01:00:33.537Z,0
2019-05-06T01:01:39.337Z,0
2019-05-06T01:02:30.644Z,0
2019-05-06T01:03:31.096Z,0
2019-05-06T01:04:33.723Z,0
2019-05-06T01:05:33.596Z,0
2019-05-06T01:06:33.814Z,0
2019-05-06T01:07:30.852Z,0
2019-05-06T01:08:31.255Z,0
2019-05-06T01:09:30.649Z,0
2019-05-06T01:10:30.997Z,0
2019-05-06T01:11:31.130Z,0
2019-05-06T01:12:31.231Z,0
2019-05-06T01:13:31.371Z,0
2019-05-06T01:14:30.700Z,0
2019-05-06T01:15:31.011Z,0
2019-05-06T01:16:29.813Z,0
2019-05-06T01:17:33.793Z,0
2019-05-06T01:18:31.624Z,0
2019-05-06T01:19:30.744Z,0
2019-05-06T01:20:29.543Z,0
2019-05-06T01:21:31.006Z,0
2019-05-06T01:22:34.093Z,0
2019-05-06T01:23:30.164Z,0
2019-05-06T01:24:31.067Z,0
2019-05-06T01:25:30.930Z,0
2019-05-06T01:26:33.246Z,0
2019-05-06T01:27:33.637Z,0
2019-05-06T01:28:29.312Z,0
2019-05-06T01:29:31.302Z,0
2019-05-06T01:30:33.492Z,0
2019-05-06T01:31:45.989Z,0
2019-05-06T01:32:30.877Z,0
2019-05-06T01:33:31.339Z,0
2019-05-06T01:34:33.707Z,0
2019-05-06T01:35:29.410Z,0
2019-05-06T01:36:29.848Z,0
2019-05-06T01:37:34.570Z,0
2019-05-06T01:38:33.786Z,0
2019-05-06T01:39:29.367Z,0
2019-05-06T01:40:31.001Z,0
2019-05-06T01:41:33.694Z,0
2019-05-06T01:42:29.464Z,0
2019-05-06T01:43:31.252Z,0
2019-05-06T01:44:29.263Z,0
2019-05-06T01:45:30.939Z,0
2019-05-06T01:46:29.158Z,0
2019-05-06T01:47:31.004Z,0
2019-05-06T01:48:29.056Z,0
2019-05-06T01:49:29.411Z,0
2019-05-06T01:50:30.749Z,0
2019-05-06T01:51:31.205Z,0
2019-05-06T01:52:30.973Z,0
2019-05-06T01:53:29.021Z,0
2019-05-06T01:54:29.708Z,0
2019-05-06T01:55:30.978Z,0
2019-05-06T01:56:33.470Z,0
2019-05-06T01:57:29.304Z,0
2019-05-06T01:58:33.359Z,0
2019-05-06T01:59:29.485Z,0
2019-05-06T02:00:30.927Z,0
2019-05-06T02:01:29.919Z,0
2019-05-06T02:02:31.116Z,0
2019-05-06T02:03:29.018Z,0
2019-05-06T02:04:29.336Z,0
2019-05-06T02:05:29.080Z,0
2019-05-06T02:06:29.790Z,0
2019-05-06T02:07:31.200Z,0
2019-05-06T02:08:29.231Z,0
2019-05-06T02:09:29.572Z,0
2019-05-06T02:10:30.990Z,0
2019-05-06T02:11:29.019Z,0
2019-05-06T02:12:29.491Z,0
2019-05-06T02:13:30.984Z,0
2019-05-06T02:14:29.541Z,0
2019-05-06T02:15:30.974Z,0
2019-05-06T02:16:31.226Z,0
2019-05-06T02:17:31.031Z,0
2019-05-06T02:18:29.182Z,0
2019-05-06T02:19:29.103Z,0
2019-05-06T02:20:29.466Z,0
2019-05-06T02:21:33.702Z,0
2019-05-06T02:22:28.938Z,0
2019-05-06T02:23:28.979Z,0
2019-05-06T02:24:29.165Z,0
2019-05-06T02:25:29.221Z,0
2019-05-06T02:26:31.049Z,0
2019-05-06T02:27:29.600Z,0
2019-05-06T02:28:30.713Z,0
2019-05-06T02:29:29.494Z,0
2019-05-06T02:30:36.141Z,0
2019-05-06T02:31:30.718Z,0
2019-05-06T02:32:40.821Z,0
2019-05-06T02:33:31.687Z,0
2019-05-06T02:34:30.330Z,0
2019-05-06T02:35:34.422Z,0
2019-05-06T02:36:30.609Z,0
2019-05-06T02:37:30.214Z,0
2019-05-06T02:38:57.134Z,0
2019-05-06T02:39:33.887Z,0
2019-05-06T02:40:35.646Z,0
2019-05-06T02:41:30.247Z,0
2019-05-06T02:42:33.595Z,0
2019-05-06T02:43:33.950Z,0
2019-05-06T02:44:33.536Z,0
2019-05-06T02:45:33.407Z,0
2019-05-06T02:46:33.734Z,0
2019-05-06T02:47:30.355Z,0
2019-05-06T02:48:33.346Z,0
2019-05-06T02:49:32.958Z,0
2019-05-06T02:50:33.862Z,0
2019-05-06T02:51:33.278Z,0
2019-05-06T02:52:32.877Z,0
2019-05-06T02:53:33.341Z,0
2019-05-06T02:54:33.980Z,0
2019-05-06T02:55:36.312Z,0
2019-05-06T02:56:33.282Z,0
2019-05-06T02:57:33.439Z,0
2019-05-06T02:58:32.983Z,0
2019-05-06T02:59:33.076Z,0
2019-05-06T03:00:32.959Z,0
2019-05-06T03:01:33.719Z,0
2019-05-06T03:02:56.689Z,0
2019-05-06T03:03:33.337Z,0
2019-05-06T03:04:33.136Z,0
2019-05-06T03:05:33.280Z,0
2019-05-06T03:06:36.170Z,0
2019-05-06T03:07:32.714Z,0
2019-05-06T03:08:32.809Z,0
2019-05-06T03:09:30.568Z,0
2019-05-06T03:10:32.856Z,0
2019-05-06T03:11:33.125Z,0
2019-05-06T03:12:30.134Z,0
2019-05-06T03:13:33.522Z,0
2019-05-06T03:14:34.113Z,0
2019-05-06T03:15:33.522Z,0
2019-05-06T03:16:33.252Z,0
2019-05-06T03:17:32.818Z,0
2019-05-06T03:18:32.675Z,0
2019-05-06T03:19:33.816Z,0
2019-05-06T03:20:32.340Z,0
2019-05-06T03:21:33.632Z,0
2019-05-06T03:22:36.820Z,0
2019-05-06T03:23:34.277Z,0
2019-05-06T03:24:33.055Z,0
2019-05-06T03:25:33.100Z,0
2019-05-06T03:26:33.102Z,0
2019-05-06T03:27:32.815Z,0
2019-05-06T03:28:29.859Z,0
2019-05-06T03:29:33.013Z,0
2019-05-06T03:30:38.495Z,0
2019-05-06T03:31:38.697Z,0
2019-05-06T03:34:17.652Z,0
2019-05-06T03:36:17.847Z,0
2019-05-06T03:36:58.550Z,0
2019-05-06T03:37:36.886Z,0
2019-05-06T03:38:36.015Z,0
2019-05-06T03:39:36.268Z,0
2019-05-06T03:40:41.915Z,0
2019-05-06T03:41:38.708Z,0
2019-05-06T03:42:35.883Z,0
2019-05-06T03:43:36.330Z,0
2019-05-06T03:44:35.566Z,0
2019-05-06T03:45:36.018Z,0
2019-05-06T03:46:36.128Z,0
2019-05-06T03:47:37.124Z,0
2019-05-06T03:48:35.770Z,0
2019-05-06T03:49:36.359Z,0
2019-05-06T03:50:36.122Z,0
2019-05-06T03:51:36.760Z,0
2019-05-06T03:52:36.694Z,0
2019-05-06T03:53:38.047Z,0
2019-05-06T03:54:36.757Z,0
2019-05-06T03:55:36.765Z,0
2019-05-06T03:56:36.397Z,0
2019-05-06T03:57:37.946Z,0
2019-05-06T03:58:39.335Z,0
2019-05-06T03:59:36.015Z,0
2019-05-06T04:00:35.810Z,0
2019-05-06T04:01:36.089Z,0
2019-05-06T04:02:39.505Z,0
2019-05-06T04:04:03.541Z,0
2019-05-06T04:04:35.775Z,0
2019-05-06T04:05:35.987Z,0
2019-05-06T04:06:35.554Z,0
2019-05-06T04:07:36.498Z,0
2019-05-06T04:08:36.833Z,0
2019-05-06T04:09:38.840Z,0
2019-05-06T04:10:39.049Z,0
2019-05-06T04:11:38.461Z,0
2019-05-06T04:12:35.593Z,0
2019-05-06T04:13:35.707Z,0
2019-05-06T04:14:36.335Z,0
2019-05-06T04:15:39.021Z,0
2019-05-06T04:16:36.249Z,0
2019-05-06T04:17:35.401Z,0
2019-05-06T04:18:35.831Z,0
2019-05-06T04:19:35.830Z,0
2019-05-06T04:20:36.614Z,0
2019-05-06T04:21:35.465Z,0
2019-05-06T04:22:35.724Z,0
2019-05-06T04:23:35.637Z,5
2019-05-06T04:24:36.171Z,5
2019-05-06T04:25:36.344Z,5
2019-05-06T04:26:35.451Z,5
2019-05-06T04:27:36.008Z,5
2019-05-06T04:28:36.520Z,5
2019-05-06T04:29:37.810Z,10
2019-05-06T04:30:35.916Z,10
2019-05-06T04:31:36.134Z,15
2019-05-06T04:32:36.560Z,15
2019-05-06T04:33:35.743Z,15
2019-05-06T04:34:35.749Z,15
2019-05-06T04:35:36.265Z,15
2019-05-06T04:36:36.187Z,15
2019-05-06T04:37:36.455Z,15
2019-05-06T04:38:36.288Z,15
2019-05-06T04:39:35.300Z,10
2019-05-06T04:40:35.636Z,15
2019-05-06T04:41:39.071Z,15
2019-05-06T04:42:39.380Z,15
2019-05-06T04:43:38.552Z,10
2019-05-06T04:44:35.612Z,10
2019-05-06T04:45:36.180Z,10
2019-05-06T04:46:37.154Z,10
2019-05-06T04:47:35.237Z,5
2019-05-06T04:48:35.573Z,5
2019-05-06T04:49:35.637Z,5
2019-05-06T04:50:35.678Z,5
2019-05-06T04:51:38.802Z,5
2019-05-06T04:52:38.935Z,5
2019-05-06T04:53:38.871Z,5
2019-05-06T04:54:38.521Z,5
2019-05-06T04:55:36.158Z,5
2019-05-06T04:56:35.839Z,5
2019-05-06T04:57:36.211Z,5
2019-05-06T04:58:36.073Z,5
2019-05-06T04:59:35.071Z,5
2019-05-06T05:00:35.614Z,5
2019-05-06T05:01:36.454Z,10
2019-05-06T05:02:36.088Z,10
2019-05-06T05:03:35.924Z,5
2019-05-06T05:04:45.749Z,5
2019-05-06T05:05:35.602Z,5
2019-05-06T05:06:35.323Z,5
2019-05-06T05:07:35.821Z,5
2019-05-06T05:08:35.550Z,5
2019-05-06T05:09:35.073Z,5
2019-05-06T05:10:34.732Z,5
2019-05-06T05:11:35.693Z,10
2019-05-06T05:12:35.964Z,10
2019-05-06T05:13:35.418Z,10
2019-05-06T05:14:37.605Z,5
2019-05-06T05:15:34.993Z,5
2019-05-06T05:16:33.204Z,5
2019-05-06T05:17:35.456Z,10
2019-05-06T05:18:34.520Z,10
2019-05-06T05:19:35.227Z,10
2019-05-06T05:20:52.965Z,10
2019-05-06T05:21:34.715Z,10
2019-05-06T05:22:34.989Z,10
2019-05-06T05:23:34.391Z,10
2019-05-06T05:24:34.123Z,10
2019-05-06T05:25:35.194Z,10
2019-05-06T05:26:34.900Z,10
2019-05-06T05:27:35.312Z,10
2019-05-06T05:28:34.530Z,10
2019-05-06T05:29:34.963Z,10
2019-05-06T05:30:35.201Z,10
2019-05-06T05:31:35.447Z,10
2019-05-06T05:32:36.975Z,10
2019-05-06T05:33:35.132Z,10
2019-05-06T05:34:48.419Z,10
2019-05-06T05:35:34.589Z,10
2019-05-06T05:36:34.878Z,10
2019-05-06T05:37:35.187Z,10
2019-05-06T05:38:34.498Z,10
2019-05-06T05:39:33.321Z,10
2019-05-06T05:40:34.645Z,10
2019-05-06T05:41:33.319Z,10
2019-05-06T05:42:35.138Z,10
2019-05-06T05:43:35.025Z,10
2019-05-06T05:44:34.804Z,10
2019-05-06T05:45:35.096Z,10
2019-05-06T05:46:33.072Z,10
2019-05-06T05:47:33.172Z,10
2019-05-06T05:48:34.927Z,10
2019-05-06T05:49:34.919Z,10
2019-05-06T05:50:34.998Z,10
2019-05-06T05:51:34.508Z,10
2019-05-06T05:52:35.188Z,10
2019-05-06T05:53:32.973Z,10
2019-05-06T05:54:35.526Z,10
2019-05-06T05:55:35.410Z,10
2019-05-06T05:56:35.208Z,10
2019-05-06T05:57:34.714Z,10
2019-05-06T05:58:35.474Z,15
2019-05-06T05:59:35.247Z,15
2019-05-06T06:00:34.871Z,15
2019-05-06T06:01:34.991Z,15
2019-05-06T06:02:33.210Z,15
2019-05-06T06:03:34.737Z,15
2019-05-06T06:04:34.590Z,15
2019-05-06T06:05:33.121Z,15
2019-05-06T06:06:33.123Z,15
2019-05-06T06:07:35.164Z,15
2019-05-06T06:08:36.839Z,15
2019-05-06T06:09:32.905Z,15
2019-05-06T06:10:33.168Z,15
2019-05-06T06:11:35.153Z,15
2019-05-06T06:12:34.797Z,15
2019-05-06T06:13:34.463Z,20
2019-05-06T06:14:33.145Z,20
2019-05-06T06:15:32.872Z,20
2019-05-06T06:16:34.960Z,20
2019-05-06T06:17:34.915Z,20
2019-05-06T06:18:33.328Z,20
2019-05-06T06:19:32.923Z,20
2019-05-06T06:20:32.763Z,20
2019-05-06T06:21:39.482Z,20
2019-05-06T06:22:33.037Z,20
2019-05-06T06:23:34.768Z,20
2019-05-06T06:24:34.546Z,20
2019-05-06T06:25:35.766Z,20
2019-05-06T06:26:34.847Z,20
2019-05-06T06:27:33.171Z,20
2019-05-06T06:28:33.280Z,20
2019-05-06T06:29:34.753Z,25
2019-05-06T06:30:33.123Z,25
2019-05-06T06:31:33.200Z,25
2019-05-06T06:32:34.968Z,25
2019-05-06T06:33:32.957Z,25
2019-05-06T06:34:32.942Z,25
2019-05-06T06:35:34.755Z,25
2019-05-06T06:36:34.963Z,25
2019-05-06T06:37:33.171Z,25
2019-05-06T06:38:34.750Z,25
2019-05-06T06:39:32.752Z,25
2019-05-06T06:40:32.958Z,25
2019-05-06T06:41:32.340Z,25
2019-05-06T06:42:33.492Z,25
2019-05-06T06:43:34.801Z,25
2019-05-06T06:44:35.443Z,25
2019-05-06T06:45:34.988Z,25
2019-05-06T06:46:34.681Z,25
2019-05-06T06:47:34.374Z,25
2019-05-06T06:48:36.829Z,30
2019-05-06T06:49:32.851Z,30
2019-05-06T06:50:32.935Z,30
2019-05-06T06:51:35.472Z,25
2019-05-06T06:52:34.706Z,25
2019-05-06T06:53:32.673Z,25
2019-05-06T06:54:34.688Z,25
2019-05-06T06:55:34.229Z,25
2019-05-06T06:56:32.933Z,25
2019-05-06T06:57:36.266Z,25
2019-05-06T06:58:34.698Z,25
2019-05-06T06:59:34.254Z,25
2019-05-06T07:00:33.553Z,25
2019-05-06T07:01:35.570Z,25
2019-05-06T07:02:35.174Z,25
2019-05-06T07:03:32.702Z,25
2019-05-06T07:04:34.948Z,25
2019-05-06T07:05:42.117Z,25
2019-05-06T07:06:33.154Z,25
2019-05-06T07:07:53.083Z,25
2019-05-06T07:08:47.372Z,25
2019-05-06T07:09:34.831Z,25
2019-05-06T07:10:32.448Z,25
2019-05-06T07:11:33.116Z,25
2019-05-06T07:12:35.245Z,30
2019-05-06T07:13:35.093Z,30
2019-05-06T07:14:36.168Z,30
2019-05-06T07:15:33.566Z,25
2019-05-06T07:16:35.220Z,25
2019-05-06T07:17:35.160Z,30
2019-05-06T07:18:33.174Z,30
2019-05-06T07:19:32.783Z,30
2019-05-06T07:20:34.826Z,30
2019-05-06T07:21:34.235Z,30
2019-05-06T07:22:34.853Z,30
2019-05-06T07:23:32.659Z,30
2019-05-06T07:24:34.843Z,30
2019-05-06T07:25:33.588Z,30
2019-05-06T07:26:34.217Z,30
2019-05-06T07:27:32.506Z,30
2019-05-06T07:28:34.973Z,30
2019-05-06T07:29:37.613Z,30
2019-05-06T07:30:34.667Z,30
2019-05-06T07:31:37.846Z,30
2019-05-06T07:32:34.937Z,30
2019-05-06T07:33:33.429Z,30
2019-05-06T07:34:34.582Z,30
2019-05-06T07:35:52.626Z,30
2019-05-06T07:36:34.531Z,30
2019-05-06T07:37:32.711Z,30
2019-05-06T07:38:34.899Z,30
2019-05-06T07:39:35.840Z,25
2019-05-06T07:40:32.600Z,30
2019-05-06T07:41:36.425Z,30
2019-05-06T07:42:34.636Z,30
2019-05-06T07:43:33.760Z,25
2019-05-06T07:44:33.316Z,30
2019-05-06T07:45:32.834Z,25
2019-05-06T07:46:35.652Z,25
2019-05-06T07:47:35.590Z,30
2019-05-06T07:48:31.957Z,30
2019-05-06T07:49:35.419Z,30
2019-05-06T07:50:33.191Z,30
2019-05-06T07:51:34.904Z,30
2019-05-06T07:52:34.949Z,25
2019-05-06T07:53:34.496Z,25
2019-05-06T07:54:32.937Z,30
2019-05-06T07:55:35.098Z,25
2019-05-06T07:56:34.610Z,25
2019-05-06T07:57:32.953Z,25
2019-05-06T07:58:34.601Z,25
2019-05-06T07:59:33.381Z,25
2019-05-06T08:00:35.067Z,25
2019-05-06T08:01:38.009Z,25
2019-05-06T08:02:34.564Z,25
2019-05-06T08:03:32.926Z,25
2019-05-06T08:04:34.845Z,30
2019-05-06T08:05:34.715Z,30
2019-05-06T08:06:34.532Z,30
2019-05-06T08:07:33.234Z,30
2019-05-06T08:08:33.412Z,30
2019-05-06T08:09:32.553Z,30
2019-05-06T08:10:33.117Z,30
2019-05-06T08:11:35.336Z,30
2019-05-06T08:12:32.614Z,30
2019-05-06T08:13:34.681Z,30
2019-05-06T08:14:32.953Z,35
2019-05-06T08:15:32.708Z,35
2019-05-06T08:16:34.297Z,35
2019-05-06T08:17:33.045Z,35
2019-05-06T08:18:32.947Z,35
2019-05-06T08:19:33.522Z,35
2019-05-06T08:20:32.459Z,35
2019-05-06T08:21:32.640Z,35
2019-05-06T08:22:33.353Z,35
2019-05-06T08:23:32.501Z,40
2019-05-06T08:24:33.270Z,40
2019-05-06T08:25:32.901Z,40
2019-05-06T08:26:32.338Z,40
2019-05-06T08:27:32.902Z,40
2019-05-06T08:28:48.685Z,35
2019-05-06T08:29:33.020Z,40
2019-05-06T08:30:34.784Z,35
2019-05-06T08:31:32.683Z,35
2019-05-06T08:32:34.498Z,45
2019-05-06T08:33:34.965Z,40
2019-05-06T08:34:34.137Z,40
2019-05-06T08:35:33.122Z,40
2019-05-06T08:36:32.888Z,40
2019-05-06T08:37:34.548Z,40
2019-05-06T08:38:32.679Z,40
2019-05-06T08:39:32.618Z,40
2019-05-06T08:40:34.610Z,40
2019-05-06T08:41:33.066Z,40
2019-05-06T08:42:32.882Z,35
2019-05-06T08:43:32.623Z,40
2019-05-06T08:44:32.287Z,40
2019-05-06T08:45:32.463Z,40
2019-05-06T08:46:35.200Z,40
2019-05-06T08:47:32.946Z,40
2019-05-06T08:48:32.443Z,35
2019-05-06T08:49:34.400Z,40
2019-05-06T08:50:32.466Z,35
2019-05-06T08:51:33.152Z,30
2019-05-06T08:52:32.271Z,30
2019-05-06T08:53:35.378Z,30
2019-05-06T08:54:34.819Z,25
2019-05-06T08:55:32.559Z,25
2019-05-06T08:56:32.103Z,25
2019-05-06T08:57:32.510Z,25
2019-05-06T08:58:32.376Z,25
2019-05-06T08:59:34.586Z,25
2019-05-06T09:00:34.709Z,25
2019-05-06T09:01:32.587Z,25
2019-05-06T09:02:34.802Z,20
2019-05-06T09:03:32.737Z,20
2019-05-06T09:04:34.554Z,20
2019-05-06T09:05:33.064Z,20
2019-05-06T09:06:43.093Z,20
2019-05-06T09:07:34.453Z,20
2019-05-06T09:08:34.807Z,20
2019-05-06T09:09:32.533Z,15
2019-05-06T09:10:34.850Z,15
2019-05-06T09:11:37.052Z,15
2019-05-06T09:12:32.908Z,15
2019-05-06T09:13:35.003Z,15
2019-05-06T09:14:35.133Z,15
2019-05-06T09:15:32.672Z,15
2019-05-06T09:16:33.038Z,15
2019-05-06T09:17:32.991Z,15
2019-05-06T09:18:35.353Z,10
2019-05-06T09:19:35.505Z,10
2019-05-06T09:20:34.978Z,10
2019-05-06T09:21:33.471Z,10
2019-05-06T09:22:35.083Z,10
2019-05-06T09:23:35.119Z,10
2019-05-06T09:24:34.602Z,15
2019-05-06T09:25:34.766Z,15
2019-05-06T09:26:32.331Z,15
2019-05-06T09:27:32.735Z,15
2019-05-06T09:28:33.876Z,15
2019-05-06T09:29:34.903Z,15
2019-05-06T09:30:33.024Z,15
2019-05-06T09:31:34.342Z,15
2019-05-06T09:32:38.216Z,15
2019-05-06T09:33:33.114Z,15
2019-05-06T09:34:34.999Z,15
2019-05-06T09:35:32.889Z,15
2019-05-06T09:36:57.419Z,15
2019-05-06T09:37:35.007Z,20
2019-05-06T09:38:34.524Z,20
2019-05-06T09:39:34.574Z,20
2019-05-06T09:40:34.297Z,20
2019-05-06T09:41:34.955Z,20
2019-05-06T09:42:34.597Z,20
2019-05-06T09:43:32.774Z,20
2019-05-06T09:44:32.992Z,20
2019-05-06T09:45:32.969Z,20
2019-05-06T09:46:34.639Z,20
2019-05-06T09:47:33.084Z,25
2019-05-06T09:48:32.994Z,25
2019-05-06T09:49:32.911Z,25
2019-05-06T09:50:34.559Z,25
2019-05-06T09:51:32.465Z,30
2019-05-06T09:52:33.370Z,30
2019-05-06T09:53:33.453Z,30
2019-05-06T09:54:34.640Z,35
2019-05-06T09:55:32.525Z,35
2019-05-06T09:56:33.456Z,40
2019-05-06T09:57:32.647Z,40
2019-05-06T09:58:34.934Z,45
2019-05-06T09:59:32.156Z,45
2019-05-06T10:00:35.473Z,45
2019-05-06T10:01:33.103Z,45
2019-05-06T10:02:34.942Z,45
2019-05-06T10:03:34.362Z,45
2019-05-06T10:04:32.369Z,45
2019-05-06T10:05:30.452Z,45
2019-05-06T10:06:32.814Z,45
2019-05-06T10:07:33.745Z,45
2019-05-06T10:08:34.658Z,45
2019-05-06T10:09:35.105Z,45
2019-05-06T10:10:32.755Z,45
2019-05-06T10:11:32.837Z,45
2019-05-06T10:12:32.634Z,45
2019-05-06T10:13:32.546Z,45
2019-05-06T10:14:34.633Z,45
2019-05-06T10:15:32.393Z,45
2019-05-06T10:16:32.379Z,40
2019-05-06T10:17:30.349Z,40
2019-05-06T10:18:32.250Z,40
2019-05-06T10:19:34.478Z,40
2019-05-06T10:20:32.990Z,40
2019-05-06T10:21:34.490Z,40
2019-05-06T10:22:34.954Z,40
2019-05-06T10:23:32.715Z,40
2019-05-06T10:24:32.240Z,40
2019-05-06T10:25:31.929Z,40
2019-05-06T10:26:32.571Z,40
2019-05-06T10:27:32.232Z,40
2019-05-06T10:28:35.949Z,40
2019-05-06T10:29:32.577Z,40
2019-05-06T10:30:33.112Z,40
2019-05-06T10:31:32.671Z,40
2019-05-06T10:32:32.761Z,40
2019-05-06T10:33:32.295Z,40
2019-05-06T10:34:32.756Z,40
2019-05-06T10:35:37.187Z,45
2019-05-06T10:36:32.394Z,45
2019-05-06T10:37:33.331Z,40
2019-05-06T10:38:32.311Z,40
2019-05-06T10:39:32.431Z,40
2019-05-06T10:40:32.892Z,40
2019-05-06T10:41:32.782Z,40
2019-05-06T10:42:34.846Z,40
2019-05-06T10:43:32.534Z,40
2019-05-06T10:44:32.953Z,40
2019-05-06T10:45:29.596Z,40
2019-05-06T10:46:32.141Z,40
2019-05-06T10:47:33.032Z,40
2019-05-06T10:48:32.123Z,45
2019-05-06T10:49:33.633Z,45
2019-05-06T10:50:32.222Z,50
2019-05-06T10:51:34.740Z,50
2019-05-06T10:52:33.209Z,50
2019-05-06T10:53:35.346Z,50
2019-05-06T10:54:34.297Z,55
2019-05-06T10:55:34.832Z,55
2019-05-06T10:56:32.102Z,55
2019-05-06T10:57:32.760Z,55
2019-05-06T10:58:32.631Z,55
2019-05-06T10:59:32.570Z,55
2019-05-06T11:00:33.125Z,55
2019-05-06T11:01:33.059Z,50
2019-05-06T11:02:32.245Z,50
2019-05-06T11:03:35.502Z,45
2019-05-06T11:04:33.080Z,40
2019-05-06T11:05:29.673Z,40
2019-05-06T11:06:33.629Z,35
2019-05-06T11:07:45.486Z,35
2019-05-06T11:08:32.564Z,35
2019-05-06T11:09:33.248Z,35
2019-05-06T11:10:50.172Z,35
2019-05-06T11:11:47.600Z,35
2019-05-06T11:12:32.554Z,35
2019-05-06T11:13:32.227Z,35
2019-05-06T11:14:35.468Z,30
2019-05-06T11:15:35.342Z,30
2019-05-06T11:16:35.629Z,30
2019-05-06T11:17:35.012Z,30
2019-05-06T11:18:33.531Z,30
2019-05-06T11:19:33.009Z,25
2019-05-06T11:20:33.432Z,25
2019-05-06T11:21:32.804Z,25
2019-05-06T11:22:35.174Z,25
2019-05-06T11:23:33.551Z,25
2019-05-06T11:24:32.499Z,25
2019-05-06T11:25:32.256Z,25
2019-05-06T11:26:30.913Z,25
2019-05-06T11:27:49.491Z,25
2019-05-06T11:28:29.734Z,25
2019-05-06T11:29:29.738Z,25
2019-05-06T11:30:33.129Z,20
2019-05-06T11:31:32.937Z,20
2019-05-06T11:32:35.371Z,20
2019-05-06T11:33:32.900Z,20
2019-05-06T11:34:32.565Z,20
2019-05-06T11:35:34.970Z,20
2019-05-06T11:36:37.447Z,20
2019-05-06T11:37:43.464Z,20
2019-05-06T11:38:31.906Z,20
2019-05-06T11:39:34.660Z,20
2019-05-06T11:40:32.810Z,20
2019-05-06T11:41:32.222Z,15
2019-05-06T11:42:45.987Z,15
2019-05-06T11:43:32.308Z,15
2019-05-06T11:44:32.311Z,15
2019-05-06T11:45:32.102Z,15
2019-05-06T11:46:32.122Z,15
2019-05-06T11:47:32.431Z,15
2019-05-06T11:48:32.767Z,15
2019-05-06T11:49:32.592Z,15
2019-05-06T11:50:33.375Z,15
2019-05-06T11:51:32.744Z,15
2019-05-06T11:52:34.423Z,15
2019-05-06T11:53:32.455Z,15
2019-05-06T11:54:36.194Z,20
2019-05-06T11:55:45.515Z,20
2019-05-06T11:56:32.533Z,20
2019-05-06T11:57:32.516Z,20
2019-05-06T11:58:31.877Z,25
2019-05-06T11:59:32.089Z,25
2019-05-06T12:00:33.246Z,30
2019-05-06T12:01:29.450Z,30
2019-05-06T12:02:29.452Z,30
2019-05-06T12:03:32.534Z,30
2019-05-06T12:04:32.847Z,30
2019-05-06T12:05:29.341Z,35
2019-05-06T12:06:32.990Z,35
2019-05-06T12:07:33.171Z,35
2019-05-06T12:08:32.627Z,35
2019-05-06T12:09:32.980Z,35
2019-05-06T12:10:29.680Z,40
2019-05-06T12:11:31.001Z,40
2019-05-06T12:12:30.488Z,40
2019-05-06T12:13:30.270Z,40
2019-05-06T12:14:29.906Z,40
2019-05-06T12:15:30.218Z,40
2019-05-06T12:16:37.850Z,40
2019-05-06T12:17:31.748Z,40
2019-05-06T12:18:32.705Z,45
2019-05-06T12:19:29.817Z,45
2019-05-06T12:20:32.904Z,45
2019-05-06T12:21:32.677Z,50
2019-05-06T12:22:32.093Z,55
2019-05-06T12:23:35.246Z,55
2019-05-06T12:24:30.162Z,55
2019-05-06T12:25:32.911Z,55
2019-05-06T12:26:29.224Z,60
2019-05-06T12:27:29.191Z,60
2019-05-06T12:28:29.219Z,60
2019-05-06T12:29:29.200Z,60
2019-05-06T12:30:32.262Z,60
2019-05-06T12:31:32.750Z,60
2019-05-06T12:32:33.060Z,65
2019-05-06T12:33:29.404Z,65
2019-05-06T12:34:29.144Z,65
2019-05-06T12:35:29.131Z,65
2019-05-06T12:36:29.132Z,65
2019-05-06T12:37:29.125Z,60
2019-05-06T12:38:39.820Z,60
2019-05-06T12:39:32.928Z,65
2019-05-06T12:40:29.078Z,70
2019-05-06T12:41:29.967Z,75
2019-05-06T12:42:32.970Z,85
2019-05-06T12:43:29.757Z,85
2019-05-06T12:44:32.233Z,90
2019-05-06T12:45:32.814Z,85
2019-05-06T12:46:29.780Z,80
2019-05-06T12:47:29.020Z,85
2019-05-06T12:48:29.041Z,85
2019-05-06T12:49:28.759Z,85
2019-05-06T12:50:29.976Z,85
2019-05-06T12:51:32.095Z,85
2019-05-06T12:52:32.274Z,85
2019-05-06T12:53:32.603Z,80
2019-05-06T12:54:29.323Z,80
2019-05-06T12:55:36.141Z,75
2019-05-06T12:56:28.706Z,75
2019-05-06T12:57:30.685Z,75
2019-05-06T12:58:32.296Z,70
2019-05-06T12:59:29.527Z,70
2019-05-06T13:00:30.816Z,70
2019-05-06T13:01:28.987Z,65
2019-05-06T13:02:32.773Z,60
2019-05-06T13:03:35.223Z,55
2019-05-06T13:05:06.000Z,50
2019-05-06T13:05:28.357Z,45
2019-05-06T13:06:35.905Z,45
2019-05-06T13:07:28.847Z,40
2019-05-06T13:09:06.472Z,40
2019-05-06T13:09:29.880Z,40
2019-05-06T13:10:30.375Z,40
2019-05-06T13:11:28.820Z,40
2019-05-06T13:12:30.419Z,40
2019-05-06T13:13:29.707Z,40
2019-05-06T13:14:29.665Z,40
2019-05-06T13:15:31.721Z,40
2019-05-06T13:16:30.037Z,40
2019-05-06T13:17:30.026Z,40
2019-05-06T13:18:32.108Z,40
2019-05-06T13:19:32.021Z,40
2019-05-06T13:20:33.800Z,40
2019-05-06T13:21:29.562Z,40
2019-05-06T13:22:33.933Z,40
2019-05-06T13:23:37.807Z,40
2019-05-06T13:24:32.388Z,45
2019-05-06T13:25:32.600Z,45
2019-05-06T13:26:29.470Z,40
2019-05-06T13:27:35.189Z,40
2019-05-06T13:28:33.457Z,40
2019-05-06T13:29:32.971Z,40
2019-05-06T13:30:29.963Z,40
2019-05-06T13:31:35.157Z,40
2019-05-06T13:32:28.633Z,40
2019-05-06T13:33:29.190Z,40
2019-05-06T13:34:33.258Z,40
2019-05-06T13:35:32.477Z,40
2019-05-06T13:36:29.899Z,40
2019-05-06T13:37:33.368Z,40
2019-05-06T13:38:29.361Z,40
2019-05-06T13:39:39.948Z,40
2019-05-06T13:40:50.604Z,40
2019-05-06T13:41:29.319Z,35
2019-05-06T13:42:29.933Z,35
2019-05-06T13:43:32.815Z,35
2019-05-06T13:44:32.008Z,30
2019-05-06T13:45:29.226Z,30
2019-05-06T13:46:33.006Z,25
2019-05-06T13:47:32.048Z,25
2019-05-06T13:48:32.142Z,25
2019-05-06T13:49:29.963Z,25
2019-05-06T13:50:30.154Z,25
2019-05-06T13:51:32.262Z,25
2019-05-06T13:52:30.131Z,25
2019-05-06T13:53:48.582Z,25
2019-05-06T13:54:29.628Z,25
2019-05-06T13:55:29.378Z,25
2019-05-06T13:56:28.487Z,25
2019-05-06T13:57:32.153Z,25
2019-05-06T13:58:28.422Z,25
2019-05-06T13:59:35.098Z,25
2019-05-06T14:00:29.703Z,25
2019-05-06T14:01:32.090Z,25
2019-05-06T14:02:28.384Z,25
2019-05-06T14:03:28.367Z,25
2019-05-06T14:04:32.603Z,25
2019-05-06T14:05:28.359Z,25
2019-05-06T14:06:28.351Z,25
2019-05-06T14:07:34.371Z,25
2019-05-06T14:08:29.376Z,25
2019-05-06T14:09:48.592Z,25
2019-05-06T14:10:29.421Z,25
2019-05-06T14:11:32.224Z,25
2019-05-06T14:12:29.302Z,25
2019-05-06T14:13:29.245Z,25
2019-05-06T14:14:29.638Z,25
2019-05-06T14:15:32.311Z,25
2019-05-06T14:16:33.375Z,20
2019-05-06T14:17:29.281Z,25
2019-05-06T14:18:29.800Z,25
2019-05-06T14:19:29.721Z,25
2019-05-06T14:20:29.241Z,20
2019-05-06T14:21:32.154Z,20
2019-05-06T14:22:32.568Z,20
2019-05-06T14:23:29.395Z,20
2019-05-06T14:24:29.457Z,20
2019-05-06T14:25:32.820Z,20
2019-05-06T14:26:30.132Z,20
2019-05-06T14:27:29.370Z,20
2019-05-06T14:28:28.165Z,20